sensor_id;sensor_type;location;lat;lon;timestamp;temperature;humidity
23069;DHT22;11702;50.856;4.348;2022-11-04T00:00:20;9.30;99.90
23069;DHT22;11702;50.856;4.348;2022-11-04T00:02:48;9.40;99.90
23069;DHT22;11702;50.856;4.348;2022-11-04T00:05:13;9.40;99.90
23069;DHT22;11702;50.856;4.348;2022-11-04T00:07:39;9.30;99.90
23069;DHT22;11702;50.856;4.348;2022-11-04T00:10:23;9.30;99.90
23069;DHT22;11702;50.856;4.348;2022-11-04T00:13:08;9.20;99.90
23069;DHT22;11702;50.856;4.348;2022-11-04T00:15:37;9.20;99.90
23069;DHT22;11702;50.856;4.348;2022-11-04T00:18:21;9.20;99.90
23069;DHT22;11702;50.856;4.348;2022-11-04T00:20:47;9.10;99.90
23069;DHT22;11702;50.856;4.348;2022-11-04T00:23:31;9.10;99.90
23069;DHT22;11702;50.856;4.348;2022-11-04T00:26:15;9.20;99.90
23069;DHT22;11702;50.856;4.348;2022-11-04T00:28:59;9.10;99.90
23069;DHT22;11702;50.856;4.348;2022-11-04T00:31:25;9.10;99.90
23069;DHT22;11702;50.856;4.348;2022-11-04T00:34:09;9.20;99.90
23069;DHT22;11702;50.856;4.348;2022-11-04T00:36:34;9.10;99.90
23069;DHT22;11702;50.856;4.348;2022-11-04T00:39:00;9.10;99.90
23069;DHT22;11702;50.856;4.348;2022-11-04T00:41:25;9.10;99.90
23069;DHT22;11702;50.856;4.348;2022-11-04T00:44:04;9.00;99.90
23069;DHT22;11702;50.856;4.348;2022-11-04T00:46:31;9.00;99.90
23069;DHT22;11702;50.856;4.348;2022-11-04T00:48:57;9.10;99.90
23069;DHT22;11702;50.856;4.348;2022-11-04T00:51:23;9.20;99.90
23069;DHT22;11702;50.856;4.348;2022-11-04T00:53:50;9.30;99.90
23069;DHT22;11702;50.856;4.348;2022-11-04T00:56:16;9.40;99.90
23069;DHT22;11702;50.856;4.348;2022-11-04T00:58:42;9.40;99.90
23069;DHT22;11702;50.856;4.348;2022-11-04T01:01:13;9.40;99.90
23069;DHT22;11702;50.856;4.348;2022-11-04T01:03:46;9.40;99.90
23069;DHT22;11702;50.856;4.348;2022-11-04T01:06:12;9.50;99.90
23069;DHT22;11702;50.856;4.348;2022-11-04T01:08:37;9.60;99.90
23069;DHT22;11702;50.856;4.348;2022-11-04T01:11:04;9.60;99.90
23069;DHT22;11702;50.856;4.348;2022-11-04T01:13:31;9.60;99.90
23069;DHT22;11702;50.856;4.348;2022-11-04T01:16:03;9.60;99.90
23069;DHT22;11702;50.856;4.348;2022-11-04T01:18:30;9.70;99.90
23069;DHT22;11702;50.856;4.348;2022-11-04T01:21:06;9.70;99.90
23069;DHT22;11702;50.856;4.348;2022-11-04T01:23:36;9.80;99.90
23069;DHT22;11702;50.856;4.348;2022-11-04T01:26:13;9.70;99.90
23069;DHT22;11702;50.856;4.348;2022-11-04T01:28:39;9.60;99.90
23069;DHT22;11702;50.856;4.348;2022-11-04T01:31:11;9.50;99.90
23069;DHT22;11702;50.856;4.348;2022-11-04T01:33:37;9.40;99.90
23069;DHT22;11702;50.856;4.348;2022-11-04T01:36:04;9.40;99.90
23069;DHT22;11702;50.856;4.348;2022-11-04T01:38:30;9.40;99.90
23069;DHT22;11702;50.856;4.348;2022-11-04T01:40:56;9.40;99.90
23069;DHT22;11702;50.856;4.348;2022-11-04T01:43:22;9.40;99.90
23069;DHT22;11702;50.856;4.348;2022-11-04T01:45:52;9.40;99.90
23069;DHT22;11702;50.856;4.348;2022-11-04T01:48:28;9.40;99.90
23069;DHT22;11702;50.856;4.348;2022-11-04T01:50:55;9.40;99.90
23069;DHT22;11702;50.856;4.348;2022-11-04T01:53:32;9.30;99.90
23069;DHT22;11702;50.856;4.348;2022-11-04T01:56:01;9.30;99.90
23069;DHT22;11702;50.856;4.348;2022-11-04T01:58:31;9.30;99.90
23069;DHT22;11702;50.856;4.348;2022-11-04T02:00:58;9.30;99.90
23069;DHT22;11702;50.856;4.348;2022-11-04T02:03:34;9.30;99.90
23069;DHT22;11702;50.856;4.348;2022-11-04T02:06:02;9.30;99.90
23069;DHT22;11702;50.856;4.348;2022-11-04T02:08:28;9.20;99.90
23069;DHT22;11702;50.856;4.348;2022-11-04T02:10:59;9.20;99.90
23069;DHT22;11702;50.856;4.348;2022-11-04T02:13:25;9.20;99.90
23069;DHT22;11702;50.856;4.348;2022-11-04T02:30:14;9.00;99.90
23069;DHT22;11702;50.856;4.348;2022-11-04T02:35:11;9.00;99.90
23069;DHT22;11702;50.856;4.348;2022-11-04T02:43:48;9.20;99.90
23069;DHT22;11702;50.856;4.348;2022-11-04T02:46:49;9.40;99.90
23069;DHT22;11702;50.856;4.348;2022-11-04T02:49:25;9.40;99.90
23069;DHT22;11702;50.856;4.348;2022-11-04T02:52:13;9.50;99.90
23069;DHT22;11702;50.856;4.348;2022-11-04T02:55:00;9.60;99.90
23069;DHT22;11702;50.856;4.348;2022-11-04T02:57:34;9.60;99.90
23069;DHT22;11702;50.856;4.348;2022-11-04T03:00:06;9.60;99.90
23069;DHT22;11702;50.856;4.348;2022-11-04T03:05:09;9.70;99.90
23069;DHT22;11702;50.856;4.348;2022-11-04T03:07:40;9.80;99.90
23069;DHT22;11702;50.856;4.348;2022-11-04T03:10:35;9.80;99.90
23069;DHT22;11702;50.856;4.348;2022-11-04T03:15:45;9.90;99.90
23069;DHT22;11702;50.856;4.348;2022-11-04T03:20:45;9.90;99.90
23069;DHT22;11702;50.856;4.348;2022-11-04T03:23:11;9.90;99.90
23069;DHT22;11702;50.856;4.348;2022-11-04T03:25:43;10.00;99.90
23069;DHT22;11702;50.856;4.348;2022-11-04T03:30:42;10.30;99.90
23069;DHT22;11702;50.856;4.348;2022-11-04T03:36:03;10.40;99.90
23069;DHT22;11702;50.856;4.348;2022-11-04T03:38:29;10.40;99.90
23069;DHT22;11702;50.856;4.348;2022-11-04T03:40:56;10.40;99.90
23069;DHT22;11702;50.856;4.348;2022-11-04T03:43:25;10.40;99.90
23069;DHT22;11702;50.856;4.348;2022-11-04T03:45:53;10.30;99.90
23069;DHT22;11702;50.856;4.348;2022-11-04T03:48:19;10.30;99.90
23069;DHT22;11702;50.856;4.348;2022-11-04T03:50:47;10.30;99.90
23069;DHT22;11702;50.856;4.348;2022-11-04T03:53:14;10.40;99.90
23069;DHT22;11702;50.856;4.348;2022-11-04T04:03:51;10.40;99.90
23069;DHT22;11702;50.856;4.348;2022-11-04T04:06:24;10.40;99.90
23069;DHT22;11702;50.856;4.348;2022-11-04T04:08:54;10.50;99.90
23069;DHT22;11702;50.856;4.348;2022-11-04T04:11:29;10.50;99.90
23069;DHT22;11702;50.856;4.348;2022-11-04T04:14:33;10.50;99.90
23069;DHT22;11702;50.856;4.348;2022-11-04T04:17:29;10.60;99.90
23069;DHT22;11702;50.856;4.348;2022-11-04T04:20:00;10.40;99.90
23069;DHT22;11702;50.856;4.348;2022-11-04T04:22:41;10.50;99.90
23069;DHT22;11702;50.856;4.348;2022-11-04T04:25:09;10.50;99.90
23069;DHT22;11702;50.856;4.348;2022-11-04T04:27:56;10.50;99.90
23069;DHT22;11702;50.856;4.348;2022-11-04T04:30:22;10.50;99.90
23069;DHT22;11702;50.856;4.348;2022-11-04T04:35:16;10.50;99.90
23069;DHT22;11702;50.856;4.348;2022-11-04T04:38:03;10.60;99.90
23069;DHT22;11702;50.856;4.348;2022-11-04T04:40:54;10.60;99.90
23069;DHT22;11702;50.856;4.348;2022-11-04T04:43:41;10.70;99.90
23069;DHT22;11702;50.856;4.348;2022-11-04T04:46:27;10.60;99.90
23069;DHT22;11702;50.856;4.348;2022-11-04T04:48:53;10.60;99.90
23069;DHT22;11702;50.856;4.348;2022-11-04T04:51:19;10.50;99.90
23069;DHT22;11702;50.856;4.348;2022-11-04T04:53:45;10.50;99.90
23069;DHT22;11702;50.856;4.348;2022-11-04T04:56:10;10.50;99.90
23069;DHT22;11702;50.856;4.348;2022-11-04T04:58:36;10.50;99.90
23069;DHT22;11702;50.856;4.348;2022-11-04T05:01:03;10.40;99.90
23069;DHT22;11702;50.856;4.348;2022-11-04T05:03:28;10.40;99.90
23069;DHT22;11702;50.856;4.348;2022-11-04T05:05:54;10.40;99.90
23069;DHT22;11702;50.856;4.348;2022-11-04T05:08:19;10.40;99.90
23069;DHT22;11702;50.856;4.348;2022-11-04T05:10:45;10.50;99.90
23069;DHT22;11702;50.856;4.348;2022-11-04T05:13:11;10.50;99.90
23069;DHT22;11702;50.856;4.348;2022-11-04T05:16:10;10.50;99.90
23069;DHT22;11702;50.856;4.348;2022-11-04T05:18:36;10.50;99.90
23069;DHT22;11702;50.856;4.348;2022-11-04T05:21:03;10.40;99.90
23069;DHT22;11702;50.856;4.348;2022-11-04T05:23:29;10.50;99.90
23069;DHT22;11702;50.856;4.348;2022-11-04T05:25:57;10.50;99.90
23069;DHT22;11702;50.856;4.348;2022-11-04T05:28:23;10.50;99.90
23069;DHT22;11702;50.856;4.348;2022-11-04T05:30:48;10.40;99.90
23069;DHT22;11702;50.856;4.348;2022-11-04T05:33:14;10.40;99.90
23069;DHT22;11702;50.856;4.348;2022-11-04T05:35:39;10.40;99.90
23069;DHT22;11702;50.856;4.348;2022-11-04T05:38:05;10.40;99.90
23069;DHT22;11702;50.856;4.348;2022-11-04T05:40:30;10.50;99.90
23069;DHT22;11702;50.856;4.348;2022-11-04T05:42:59;10.50;99.90
23069;DHT22;11702;50.856;4.348;2022-11-04T05:45:26;10.40;99.90
23069;DHT22;11702;50.856;4.348;2022-11-04T05:48:03;10.40;99.90
23069;DHT22;11702;50.856;4.348;2022-11-04T05:50:31;10.40;99.90
23069;DHT22;11702;50.856;4.348;2022-11-04T05:53:00;10.40;99.90
23069;DHT22;11702;50.856;4.348;2022-11-04T05:55:26;10.30;99.90
23069;DHT22;11702;50.856;4.348;2022-11-04T05:57:52;10.30;99.90
23069;DHT22;11702;50.856;4.348;2022-11-04T06:00:18;10.30;99.90
23069;DHT22;11702;50.856;4.348;2022-11-04T06:02:44;10.30;99.90
23069;DHT22;11702;50.856;4.348;2022-11-04T06:05:10;10.30;99.90
23069;DHT22;11702;50.856;4.348;2022-11-04T06:07:35;10.30;99.90
23069;DHT22;11702;50.856;4.348;2022-11-04T06:10:01;10.30;99.90
23069;DHT22;11702;50.856;4.348;2022-11-04T06:12:27;10.40;99.90
23069;DHT22;11702;50.856;4.348;2022-11-04T06:14:52;10.30;99.90
23069;DHT22;11702;50.856;4.348;2022-11-04T06:17:21;10.30;99.90
23069;DHT22;11702;50.856;4.348;2022-11-04T06:19:48;10.30;99.90
23069;DHT22;11702;50.856;4.348;2022-11-04T06:22:15;10.40;99.90
23069;DHT22;11702;50.856;4.348;2022-11-04T06:24:41;10.40;99.90
23069;DHT22;11702;50.856;4.348;2022-11-04T06:27:08;10.40;99.90
23069;DHT22;11702;50.856;4.348;2022-11-04T06:29:34;10.30;99.90
23069;DHT22;11702;50.856;4.348;2022-11-04T06:32:10;10.40;99.90
23069;DHT22;11702;50.856;4.348;2022-11-04T06:34:36;10.30;99.90
23069;DHT22;11702;50.856;4.348;2022-11-04T06:37:02;10.40;99.90
23069;DHT22;11702;50.856;4.348;2022-11-04T06:39:27;10.40;99.90
23069;DHT22;11702;50.856;4.348;2022-11-04T06:41:53;10.50;99.90
23069;DHT22;11702;50.856;4.348;2022-11-04T06:44:19;10.50;99.90
23069;DHT22;11702;50.856;4.348;2022-11-04T06:46:44;10.60;99.90
23069;DHT22;11702;50.856;4.348;2022-11-04T06:49:15;10.60;99.90
23069;DHT22;11702;50.856;4.348;2022-11-04T06:51:42;10.60;99.90
23069;DHT22;11702;50.856;4.348;2022-11-04T06:54:07;10.60;99.90
23069;DHT22;11702;50.856;4.348;2022-11-04T06:56:33;10.60;99.90
23069;DHT22;11702;50.856;4.348;2022-11-04T06:58:58;10.60;99.90
23069;DHT22;11702;50.856;4.348;2022-11-04T07:01:26;10.60;99.90
23069;DHT22;11702;50.856;4.348;2022-11-04T07:03:57;10.60;99.90
23069;DHT22;11702;50.856;4.348;2022-11-04T07:06:23;10.60;99.90
23069;DHT22;11702;50.856;4.348;2022-11-04T07:08:51;10.60;99.90
23069;DHT22;11702;50.856;4.348;2022-11-04T07:11:20;10.60;99.90
23069;DHT22;11702;50.856;4.348;2022-11-04T07:13:46;10.80;99.90
23069;DHT22;11702;50.856;4.348;2022-11-04T07:16:13;10.90;99.90
23069;DHT22;11702;50.856;4.348;2022-11-04T07:18:39;11.00;99.90
23069;DHT22;11702;50.856;4.348;2022-11-04T07:21:04;11.00;99.90
23069;DHT22;11702;50.856;4.348;2022-11-04T07:23:31;11.00;99.90
23069;DHT22;11702;50.856;4.348;2022-11-04T07:26:04;11.10;99.90
23069;DHT22;11702;50.856;4.348;2022-11-04T07:28:32;11.20;99.90
23069;DHT22;11702;50.856;4.348;2022-11-04T07:30:59;11.30;99.90
23069;DHT22;11702;50.856;4.348;2022-11-04T07:33:25;11.20;99.90
23069;DHT22;11702;50.856;4.348;2022-11-04T07:35:54;11.20;99.90
23069;DHT22;11702;50.856;4.348;2022-11-04T07:38:21;11.20;99.90
23069;DHT22;11702;50.856;4.348;2022-11-04T07:40:47;11.40;99.90
23069;DHT22;11702;50.856;4.348;2022-11-04T07:43:13;11.50;99.90
23069;DHT22;11702;50.856;4.348;2022-11-04T07:45:39;11.40;99.90
23069;DHT22;11702;50.856;4.348;2022-11-04T07:48:04;11.30;99.90
23069;DHT22;11702;50.856;4.348;2022-11-04T07:50:30;11.20;99.90
23069;DHT22;11702;50.856;4.348;2022-11-04T07:52:55;11.20;99.90
23069;DHT22;11702;50.856;4.348;2022-11-04T07:55:21;11.40;99.90
23069;DHT22;11702;50.856;4.348;2022-11-04T07:57:47;11.50;99.90
23069;DHT22;11702;50.856;4.348;2022-11-04T08:00:14;11.50;99.90
23069;DHT22;11702;50.856;4.348;2022-11-04T08:02:42;11.60;99.90
23069;DHT22;11702;50.856;4.348;2022-11-04T08:05:11;11.50;99.90
23069;DHT22;11702;50.856;4.348;2022-11-04T08:07:37;11.50;99.90
23069;DHT22;11702;50.856;4.348;2022-11-04T08:10:03;11.60;99.90
23069;DHT22;11702;50.856;4.348;2022-11-04T08:12:29;11.60;99.90
23069;DHT22;11702;50.856;4.348;2022-11-04T08:14:57;11.60;99.90
23069;DHT22;11702;50.856;4.348;2022-11-04T08:17:22;11.60;99.90
23069;DHT22;11702;50.856;4.348;2022-11-04T08:19:48;11.60;99.90
23069;DHT22;11702;50.856;4.348;2022-11-04T08:22:13;11.70;99.90
23069;DHT22;11702;50.856;4.348;2022-11-04T08:24:39;11.70;99.90
23069;DHT22;11702;50.856;4.348;2022-11-04T08:27:05;11.50;99.90
23069;DHT22;11702;50.856;4.348;2022-11-04T08:29:34;11.60;99.90
23069;DHT22;11702;50.856;4.348;2022-11-04T08:32:01;11.70;99.90
23069;DHT22;11702;50.856;4.348;2022-11-04T08:34:26;11.70;99.90
23069;DHT22;11702;50.856;4.348;2022-11-04T08:36:52;11.70;99.90
23069;DHT22;11702;50.856;4.348;2022-11-04T08:39:18;11.70;99.90
23069;DHT22;11702;50.856;4.348;2022-11-04T08:41:44;11.70;99.90
23069;DHT22;11702;50.856;4.348;2022-11-04T08:44:11;11.80;99.90
23069;DHT22;11702;50.856;4.348;2022-11-04T08:46:40;11.80;99.90
23069;DHT22;11702;50.856;4.348;2022-11-04T08:49:07;11.90;99.90
23069;DHT22;11702;50.856;4.348;2022-11-04T08:51:35;12.00;99.90
23069;DHT22;11702;50.856;4.348;2022-11-04T08:54:03;12.10;99.90
23069;DHT22;11702;50.856;4.348;2022-11-04T08:56:32;12.10;99.90
23069;DHT22;11702;50.856;4.348;2022-11-04T08:58:59;12.10;99.90
23069;DHT22;11702;50.856;4.348;2022-11-04T09:01:25;12.20;99.90
23069;DHT22;11702;50.856;4.348;2022-11-04T09:03:51;12.40;99.90
23069;DHT22;11702;50.856;4.348;2022-11-04T09:06:20;12.40;99.90
23069;DHT22;11702;50.856;4.348;2022-11-04T09:08:46;12.40;99.90
23069;DHT22;11702;50.856;4.348;2022-11-04T09:11:13;12.20;99.90
23069;DHT22;11702;50.856;4.348;2022-11-04T09:13:39;12.20;99.90
23069;DHT22;11702;50.856;4.348;2022-11-04T09:16:06;12.10;99.90
23069;DHT22;11702;50.856;4.348;2022-11-04T09:18:32;12.20;99.90
23069;DHT22;11702;50.856;4.348;2022-11-04T09:21:02;12.30;99.90
23069;DHT22;11702;50.856;4.348;2022-11-04T09:23:27;12.30;99.90
23069;DHT22;11702;50.856;4.348;2022-11-04T09:25:55;12.40;99.90
23069;DHT22;11702;50.856;4.348;2022-11-04T09:28:23;12.50;99.90
23069;DHT22;11702;50.856;4.348;2022-11-04T09:30:49;12.70;99.90
23069;DHT22;11702;50.856;4.348;2022-11-04T09:33:15;12.80;99.90
23069;DHT22;11702;50.856;4.348;2022-11-04T09:35:41;12.70;99.90
23069;DHT22;11702;50.856;4.348;2022-11-04T09:38:06;12.80;99.90
23069;DHT22;11702;50.856;4.348;2022-11-04T09:40:34;12.90;99.90
23069;DHT22;11702;50.856;4.348;2022-11-04T09:43:24;13.00;99.90
23069;DHT22;11702;50.856;4.348;2022-11-04T09:45:53;12.70;99.90
23069;DHT22;11702;50.856;4.348;2022-11-04T09:48:25;12.70;99.90
23069;DHT22;11702;50.856;4.348;2022-11-04T09:50:58;12.90;99.90
23069;DHT22;11702;50.856;4.348;2022-11-04T09:58:37;13.40;99.90
23069;DHT22;11702;50.856;4.348;2022-11-04T10:01:35;13.40;99.90
23069;DHT22;11702;50.856;4.348;2022-11-04T10:04:37;13.40;99.90
23069;DHT22;11702;50.856;4.348;2022-11-04T10:07:19;13.50;99.90
23069;DHT22;11702;50.856;4.348;2022-11-04T10:26:24;12.90;99.90
23069;DHT22;11702;50.856;4.348;2022-11-04T10:29:01;12.90;99.90
23069;DHT22;11702;50.856;4.348;2022-11-04T10:31:28;13.00;99.90
23069;DHT22;11702;50.856;4.348;2022-11-04T10:34:05;12.80;99.90
23069;DHT22;11702;50.856;4.348;2022-11-04T10:36:34;12.70;99.90
23069;DHT22;11702;50.856;4.348;2022-11-04T10:39:02;12.60;99.90
23069;DHT22;11702;50.856;4.348;2022-11-04T10:41:33;12.40;99.90
23069;DHT22;11702;50.856;4.348;2022-11-04T10:46:56;12.50;99.90
23069;DHT22;11702;50.856;4.348;2022-11-04T10:52:23;12.40;99.90
23069;DHT22;11702;50.856;4.348;2022-11-04T10:54:49;12.60;99.90
23069;DHT22;11702;50.856;4.348;2022-11-04T10:57:28;12.60;99.90
23069;DHT22;11702;50.856;4.348;2022-11-04T11:00:00;12.60;99.90
23069;DHT22;11702;50.856;4.348;2022-11-04T11:07:40;12.40;99.90
23069;DHT22;11702;50.856;4.348;2022-11-04T11:10:19;12.30;99.90
23069;DHT22;11702;50.856;4.348;2022-11-04T11:13:05;12.30;99.90
23069;DHT22;11702;50.856;4.348;2022-11-04T11:15:39;12.50;99.90
23069;DHT22;11702;50.856;4.348;2022-11-04T11:18:17;12.50;99.90
23069;DHT22;11702;50.856;4.348;2022-11-04T11:21:02;12.60;99.90
23069;DHT22;11702;50.856;4.348;2022-11-04T11:26:09;12.90;99.90
23069;DHT22;11702;50.856;4.348;2022-11-04T11:28:38;13.00;99.90
23069;DHT22;11702;50.856;4.348;2022-11-04T11:31:14;12.90;99.90
23069;DHT22;11702;50.856;4.348;2022-11-04T11:33:54;12.90;99.90
23069;DHT22;11702;50.856;4.348;2022-11-04T11:36:27;13.10;99.90
23069;DHT22;11702;50.856;4.348;2022-11-04T11:39:05;13.20;99.90
23069;DHT22;11702;50.856;4.348;2022-11-04T11:42:05;13.40;99.90
23069;DHT22;11702;50.856;4.348;2022-11-04T11:44:40;13.60;99.90
23069;DHT22;11702;50.856;4.348;2022-11-04T11:47:34;13.50;99.90
23069;DHT22;11702;50.856;4.348;2022-11-04T11:50:15;13.60;99.90
23069;DHT22;11702;50.856;4.348;2022-11-04T11:52:43;13.60;99.90
23069;DHT22;11702;50.856;4.348;2022-11-04T11:55:22;13.60;99.90
23069;DHT22;11702;50.856;4.348;2022-11-04T11:58:09;13.30;99.90
23069;DHT22;11702;50.856;4.348;2022-11-04T12:00:43;13.10;99.90
23069;DHT22;11702;50.856;4.348;2022-11-04T12:03:22;12.90;99.90
23069;DHT22;11702;50.856;4.348;2022-11-04T12:14:31;12.80;99.90
23069;DHT22;11702;50.856;4.348;2022-11-04T12:24:41;13.10;99.90
23069;DHT22;11702;50.856;4.348;2022-11-04T12:30:28;12.80;99.90
23069;DHT22;11702;50.856;4.348;2022-11-04T12:32:38;12.80;99.90
23069;DHT22;11702;50.856;4.348;2022-11-04T12:38:14;13.00;99.90
23069;DHT22;11702;50.856;4.348;2022-11-04T12:43:24;13.30;99.90
23069;DHT22;11702;50.856;4.348;2022-11-04T12:46:17;13.20;99.90
23069;DHT22;11702;50.856;4.348;2022-11-04T12:49:08;13.20;99.90
23069;DHT22;11702;50.856;4.348;2022-11-04T12:52:07;13.10;99.90
23069;DHT22;11702;50.856;4.348;2022-11-04T12:54:58;13.00;99.90
23069;DHT22;11702;50.856;4.348;2022-11-04T13:00:16;12.90;99.90
23069;DHT22;11702;50.856;4.348;2022-11-04T13:02:48;13.00;99.90
23069;DHT22;11702;50.856;4.348;2022-11-04T13:13:26;12.90;99.90
23069;DHT22;11702;50.856;4.348;2022-11-04T13:15:57;12.80;99.90
23069;DHT22;11702;50.856;4.348;2022-11-04T13:18:25;12.80;99.90
23069;DHT22;11702;50.856;4.348;2022-11-04T13:21:00;12.90;99.90
23069;DHT22;11702;50.856;4.348;2022-11-04T13:24:11;12.90;99.90
23069;DHT22;11702;50.856;4.348;2022-11-04T13:26:17;12.80;99.90
23069;DHT22;11702;50.856;4.348;2022-11-04T13:28:45;12.80;99.90
23069;DHT22;11702;50.856;4.348;2022-11-04T13:31:24;12.80;99.90
23069;DHT22;11702;50.856;4.348;2022-11-04T13:37:04;12.90;99.90
23069;DHT22;11702;50.856;4.348;2022-11-04T13:40:25;13.00;99.90
23069;DHT22;11702;50.856;4.348;2022-11-04T13:45:17;13.00;99.90
23069;DHT22;11702;50.856;4.348;2022-11-04T13:47:49;12.90;99.90
23069;DHT22;11702;50.856;4.348;2022-11-04T13:50:34;12.80;99.90
23069;DHT22;11702;50.856;4.348;2022-11-04T13:53:02;12.80;99.90
23069;DHT22;11702;50.856;4.348;2022-11-04T13:55:28;12.90;99.90
23069;DHT22;11702;50.856;4.348;2022-11-04T13:57:59;12.70;99.90
23069;DHT22;11702;50.856;4.348;2022-11-04T14:00:27;12.80;99.90
23069;DHT22;11702;50.856;4.348;2022-11-04T14:03:36;12.80;99.90
23069;DHT22;11702;50.856;4.348;2022-11-04T14:08:26;12.70;99.90
23069;DHT22;11702;50.856;4.348;2022-11-04T14:18:39;13.10;99.90
23069;DHT22;11702;50.856;4.348;2022-11-04T14:23:35;13.00;99.90
23069;DHT22;11702;50.856;4.348;2022-11-04T14:26:04;12.90;99.90
23069;DHT22;11702;50.856;4.348;2022-11-04T14:28:31;12.50;99.90
23069;DHT22;11702;50.856;4.348;2022-11-04T14:31:02;11.90;99.90
23069;DHT22;11702;50.856;4.348;2022-11-04T14:38:53;10.50;99.90
23069;DHT22;11702;50.856;4.348;2022-11-04T14:46:45;10.20;99.90
23069;DHT22;11702;50.856;4.348;2022-11-04T14:54:39;10.00;99.90
23069;DHT22;11702;50.856;4.348;2022-11-04T14:57:16;10.10;99.90
23069;DHT22;11702;50.856;4.348;2022-11-04T14:59:43;10.10;99.90
23069;DHT22;11702;50.856;4.348;2022-11-04T15:02:24;10.10;99.90
23069;DHT22;11702;50.856;4.348;2022-11-04T15:04:56;10.10;99.90
23069;DHT22;11702;50.856;4.348;2022-11-04T15:07:32;10.00;99.90
23069;DHT22;11702;50.856;4.348;2022-11-04T15:09:58;10.00;99.90
23069;DHT22;11702;50.856;4.348;2022-11-04T15:12:24;9.90;99.90
23069;DHT22;11702;50.856;4.348;2022-11-04T15:15:34;9.90;99.90
23069;DHT22;11702;50.856;4.348;2022-11-04T15:18:11;9.90;99.90
23069;DHT22;11702;50.856;4.348;2022-11-04T15:20:53;9.90;99.90
23069;DHT22;11702;50.856;4.348;2022-11-04T15:23:44;9.90;99.90
23069;DHT22;11702;50.856;4.348;2022-11-04T15:26:19;10.00;99.90
23069;DHT22;11702;50.856;4.348;2022-11-04T15:28:47;10.00;99.90
23069;DHT22;11702;50.856;4.348;2022-11-04T15:31:19;10.10;99.90
23069;DHT22;11702;50.856;4.348;2022-11-04T15:33:49;10.00;99.90
23069;DHT22;11702;50.856;4.348;2022-11-04T15:36:36;10.00;99.90
23069;DHT22;11702;50.856;4.348;2022-11-04T15:39:42;10.10;99.90
23069;DHT22;11702;50.856;4.348;2022-11-04T15:42:25;10.00;99.90
23069;DHT22;11702;50.856;4.348;2022-11-04T15:45:36;9.90;99.90
23069;DHT22;11702;50.856;4.348;2022-11-04T15:48:22;9.90;99.90
23069;DHT22;11702;50.856;4.348;2022-11-04T15:54:03;9.90;99.90
23069;DHT22;11702;50.856;4.348;2022-11-04T15:56:47;10.00;99.90
23069;DHT22;11702;50.856;4.348;2022-11-04T15:59:33;10.10;99.90
23069;DHT22;11702;50.856;4.348;2022-11-04T16:02:03;10.10;99.90
23069;DHT22;11702;50.856;4.348;2022-11-04T16:04:29;10.20;99.90
23069;DHT22;11702;50.856;4.348;2022-11-04T16:09:51;10.20;99.90
23069;DHT22;11702;50.856;4.348;2022-11-04T16:12:32;10.30;99.90
23069;DHT22;11702;50.856;4.348;2022-11-04T16:14:59;10.20;99.90
23069;DHT22;11702;50.856;4.348;2022-11-04T16:17:25;10.20;99.90
23069;DHT22;11702;50.856;4.348;2022-11-04T16:19:54;10.10;99.90
23069;DHT22;11702;50.856;4.348;2022-11-04T16:22:30;10.20;99.90
23069;DHT22;11702;50.856;4.348;2022-11-04T16:24:58;10.10;99.90
23069;DHT22;11702;50.856;4.348;2022-11-04T16:27:25;10.10;99.90
23069;DHT22;11702;50.856;4.348;2022-11-04T16:29:58;10.20;99.90
23069;DHT22;11702;50.856;4.348;2022-11-04T16:32:28;10.30;99.90
23069;DHT22;11702;50.856;4.348;2022-11-04T16:35:00;10.20;99.90
23069;DHT22;11702;50.856;4.348;2022-11-04T16:37:27;10.30;99.90
23069;DHT22;11702;50.856;4.348;2022-11-04T16:39:54;10.40;99.90
23069;DHT22;11702;50.856;4.348;2022-11-04T16:42:21;10.40;99.90
23069;DHT22;11702;50.856;4.348;2022-11-04T16:44:48;10.70;99.90
23069;DHT22;11702;50.856;4.348;2022-11-04T16:47:14;10.70;99.90
23069;DHT22;11702;50.856;4.348;2022-11-04T16:49:44;10.60;99.90
23069;DHT22;11702;50.856;4.348;2022-11-04T16:52:13;10.50;99.90
23069;DHT22;11702;50.856;4.348;2022-11-04T16:54:39;10.50;99.90
23069;DHT22;11702;50.856;4.348;2022-11-04T16:57:05;10.40;99.90
23069;DHT22;11702;50.856;4.348;2022-11-04T16:59:36;10.60;99.90
23069;DHT22;11702;50.856;4.348;2022-11-04T17:02:22;10.60;99.90
23069;DHT22;11702;50.856;4.348;2022-11-04T17:04:49;10.60;99.90
23069;DHT22;11702;50.856;4.348;2022-11-04T17:07:15;10.50;99.90
23069;DHT22;11702;50.856;4.348;2022-11-04T17:09:40;10.60;99.90
23069;DHT22;11702;50.856;4.348;2022-11-04T17:12:06;10.50;99.90
23069;DHT22;11702;50.856;4.348;2022-11-04T17:14:32;10.40;99.90
23069;DHT22;11702;50.856;4.348;2022-11-04T17:16:58;10.40;99.90
23069;DHT22;11702;50.856;4.348;2022-11-04T17:19:23;10.40;99.90
23069;DHT22;11702;50.856;4.348;2022-11-04T17:21:49;10.30;99.90
23069;DHT22;11702;50.856;4.348;2022-11-04T17:24:14;10.30;99.90
23069;DHT22;11702;50.856;4.348;2022-11-04T17:26:40;10.30;99.90
23069;DHT22;11702;50.856;4.348;2022-11-04T17:29:05;10.20;99.90
23069;DHT22;11702;50.856;4.348;2022-11-04T17:31:31;10.20;99.90
23069;DHT22;11702;50.856;4.348;2022-11-04T17:33:57;10.10;99.90
23069;DHT22;11702;50.856;4.348;2022-11-04T17:36:22;10.10;99.90
23069;DHT22;11702;50.856;4.348;2022-11-04T17:38:48;10.00;99.90
23069;DHT22;11702;50.856;4.348;2022-11-04T17:41:14;10.00;99.90
23069;DHT22;11702;50.856;4.348;2022-11-04T17:43:58;10.00;99.90
23069;DHT22;11702;50.856;4.348;2022-11-04T17:46:27;10.00;99.90
23069;DHT22;11702;50.856;4.348;2022-11-04T17:49:20;10.10;99.90
23069;DHT22;11702;50.856;4.348;2022-11-04T17:51:49;10.00;99.90
23069;DHT22;11702;50.856;4.348;2022-11-04T17:54:15;10.00;99.90
23069;DHT22;11702;50.856;4.348;2022-11-04T17:56:41;9.90;99.90
23069;DHT22;11702;50.856;4.348;2022-11-04T17:59:07;10.00;99.90
23069;DHT22;11702;50.856;4.348;2022-11-04T18:01:34;9.90;99.90
23069;DHT22;11702;50.856;4.348;2022-11-04T18:04:01;9.80;99.90
23069;DHT22;11702;50.856;4.348;2022-11-04T18:06:29;9.90;99.90
23069;DHT22;11702;50.856;4.348;2022-11-04T18:08:56;9.90;99.90
23069;DHT22;11702;50.856;4.348;2022-11-04T18:11:24;9.60;99.90
23069;DHT22;11702;50.856;4.348;2022-11-04T18:14:09;9.50;99.90
23069;DHT22;11702;50.856;4.348;2022-11-04T18:16:35;9.40;99.90
23069;DHT22;11702;50.856;4.348;2022-11-04T18:19:01;9.50;99.90
23069;DHT22;11702;50.856;4.348;2022-11-04T18:21:27;9.30;99.90
23069;DHT22;11702;50.856;4.348;2022-11-04T18:23:55;9.20;99.90
23069;DHT22;11702;50.856;4.348;2022-11-04T18:26:21;9.20;99.90
23069;DHT22;11702;50.856;4.348;2022-11-04T18:28:46;9.20;99.90
23069;DHT22;11702;50.856;4.348;2022-11-04T18:31:23;9.10;99.90
23069;DHT22;11702;50.856;4.348;2022-11-04T18:33:50;9.00;99.90
23069;DHT22;11702;50.856;4.348;2022-11-04T18:36:17;9.00;99.90
23069;DHT22;11702;50.856;4.348;2022-11-04T18:38:43;8.90;99.90